createdAt,value
2022-11-15T00:00:07.697Z,602.4
2022-11-15T00:01:09.957Z,602.3
2022-11-15T00:02:12.852Z,602.4
2022-11-15T00:03:15.085Z,602.6
2022-11-15T00:04:17.285Z,603.1
2022-11-15T00:05:19.189Z,603.3
2022-11-15T00:06:21.448Z,603.3
2022-11-15T00:08:28.666Z,603
2022-11-15T00:09:30.850Z,603.3
2022-11-15T00:10:33.324Z,603.6
2022-11-15T00:11:35.786Z,603.7
2022-11-15T00:12:37.988Z,603.6
2022-11-15T00:13:40.465Z,603.9
2022-11-15T00:14:42.932Z,603.8
2022-11-15T00:15:44.559Z,603
2022-11-15T00:16:46.827Z,603.7
2022-11-15T00:17:48.738Z,603.8
2022-11-15T00:18:52.141Z,603.8
2022-11-15T00:19:54.325Z,603.4
2022-11-15T00:20:56.534Z,603.9
2022-11-15T00:21:58.503Z,603.7
2022-11-15T00:23:00.696Z,603.6
2022-11-15T00:24:02.889Z,603.6
2022-11-15T00:25:05.087Z,603.7
2022-11-15T00:26:07.555Z,603.7
2022-11-15T00:27:10.190Z,603.7
2022-11-15T00:28:12.663Z,604.2
2022-11-15T00:29:15.155Z,604
2022-11-15T00:30:17.639Z,603.8
2022-11-15T00:31:19.865Z,604.2
2022-11-15T00:32:22.212Z,603.8
2022-11-15T00:33:24.413Z,604.4
2022-11-15T00:34:26.332Z,604.1
2022-11-15T00:35:28.581Z,604.2
2022-11-15T00:36:30.492Z,604.4
2022-11-15T00:37:32.744Z,604.6
2022-11-15T00:38:34.934Z,604.4
2022-11-15T00:39:37.134Z,604.5
2022-11-15T00:40:38.779Z,604.7
2022-11-15T00:41:40.975Z,604.8
2022-11-15T00:42:43.462Z,604.5
2022-11-15T00:43:46.247Z,605.1
2022-11-15T00:44:48.446Z,605.2
2022-11-15T00:45:50.987Z,605.1
2022-11-15T00:46:53.459Z,605.7
2022-11-15T00:47:55.993Z,605.2
2022-11-15T00:48:57.906Z,605.9
2022-11-15T00:50:00.109Z,605.2
2022-11-15T00:51:02.607Z,605.7
2022-11-15T00:52:04.836Z,605.7
2022-11-15T00:53:07.356Z,605.6
2022-11-15T00:54:09.561Z,606.2
2022-11-15T00:55:11.823Z,606.8
2022-11-15T00:56:13.738Z,606.5
2022-11-15T00:57:15.933Z,607.1
2022-11-15T00:58:17.848Z,606.8
2022-11-15T00:59:20.342Z,607
2022-11-15T01:00:22.548Z,607.1
2022-11-15T01:01:25.469Z,607.2
2022-11-15T01:02:27.689Z,607.6
2022-11-15T01:03:32.240Z,607.4
2022-11-15T01:04:34.874Z,607.4
2022-11-15T01:05:37.092Z,607.6
2022-11-15T01:06:39.557Z,607.8
2022-11-15T01:07:41.758Z,607.7
2022-11-15T01:08:43.986Z,608.1
2022-11-15T01:09:45.894Z,607.9
2022-11-15T01:10:48.088Z,607.9
2022-11-15T01:11:50.001Z,607.9
2022-11-15T01:12:52.213Z,607.9
2022-11-15T01:13:54.682Z,608
2022-11-15T01:14:56.885Z,608
2022-11-15T01:15:59.084Z,608.3
2022-11-15T01:17:01.288Z,608.1
2022-11-15T01:18:03.776Z,608.5
2022-11-15T01:19:06.708Z,608.5
2022-11-15T01:20:08.910Z,608.7
2022-11-15T01:21:11.380Z,608.8
2022-11-15T01:22:13.559Z,609.1
2022-11-15T01:23:16.028Z,608.9
2022-11-15T01:24:18.298Z,608.8
2022-11-15T01:25:20.780Z,608.9
2022-11-15T01:26:22.697Z,609.5
2022-11-15T01:27:24.889Z,609.4
2022-11-15T01:28:27.356Z,609.7
2022-11-15T01:29:29.822Z,609.5
2022-11-15T01:30:32.293Z,609.4
2022-11-15T01:31:34.467Z,610
2022-11-15T01:32:36.934Z,609.8
2022-11-15T01:33:38.852Z,610
2022-11-15T01:34:41.392Z,610.1
2022-11-15T01:35:43.870Z,610.4
2022-11-15T01:36:46.341Z,610.6
2022-11-15T01:37:48.807Z,610.4
2022-11-15T01:38:50.721Z,610.2
2022-11-15T01:39:52.959Z,610.3
2022-11-15T01:40:55.426Z,610.2
2022-11-15T01:41:57.605Z,609.9
2022-11-15T01:42:59.525Z,609.9
2022-11-15T01:44:01.995Z,610.3
2022-11-15T01:45:03.645Z,610.5
2022-11-15T01:46:06.117Z,610.9
2022-11-15T01:47:08.304Z,610.6
2022-11-15T01:48:10.769Z,611.4
2022-11-15T01:49:12.694Z,611.5
2022-11-15T01:50:15.242Z,611.3
2022-11-15T01:51:17.709Z,611.8
2022-11-15T01:52:20.181Z,611.8
2022-11-15T01:53:22.652Z,612.2
2022-11-15T01:54:25.120Z,612.1
2022-11-15T01:55:27.631Z,611.8
2022-11-15T01:56:29.559Z,611.9
2022-11-15T01:57:32.024Z,612
2022-11-15T01:58:34.220Z,612.2
2022-11-15T01:59:36.137Z,612.3
2022-11-15T02:00:38.548Z,612.2
2022-11-15T02:01:40.754Z,612.1
2022-11-15T02:02:43.236Z,612.3
2022-11-15T02:03:45.426Z,612
2022-11-15T02:04:47.899Z,612.2
2022-11-15T02:05:50.422Z,612.4
2022-11-15T02:06:52.510Z,612.3
2022-11-15T02:07:54.722Z,612.2
2022-11-15T02:08:57.193Z,612.8
2022-11-15T02:09:59.387Z,612.5
2022-11-15T02:11:01.628Z,612.6
2022-11-15T02:12:03.827Z,612.8
2022-11-15T02:13:06.019Z,612.6
2022-11-15T02:14:08.498Z,612.4
2022-11-15T02:15:10.964Z,612.4
2022-11-15T02:16:12.861Z,612.7
2022-11-15T02:17:14.773Z,612.8
2022-11-15T02:18:17.248Z,613
2022-11-15T02:19:19.446Z,613
2022-11-15T02:20:21.917Z,613.2
2022-11-15T02:21:24.179Z,613
2022-11-15T02:22:26.652Z,612.9
2022-11-15T02:23:29.998Z,613
2022-11-15T02:24:32.406Z,613.4
2022-11-15T02:25:34.329Z,613
2022-11-15T02:26:36.859Z,613.3
2022-11-15T02:27:39.067Z,613.3
2022-11-15T02:28:41.534Z,613.8
2022-11-15T02:29:44.007Z,613.8
2022-11-15T02:30:46.215Z,613.8
2022-11-15T02:31:48.415Z,614
2022-11-15T02:32:50.918Z,613.9
2022-11-15T02:33:52.828Z,614.1
2022-11-15T02:34:55.300Z,614.4
2022-11-15T02:35:56.955Z,614.4
2022-11-15T02:36:59.214Z,614.5
2022-11-15T02:38:01.137Z,614.7
2022-11-15T02:39:03.085Z,614.8
2022-11-15T02:40:05.554Z,614.6
2022-11-15T02:41:07.729Z,615.1
2022-11-15T02:42:10.252Z,615
2022-11-15T02:43:12.447Z,615
2022-11-15T02:44:14.372Z,614.9
2022-11-15T02:45:16.565Z,615.2
2022-11-15T02:46:18.502Z,615.1
2022-11-15T02:47:20.710Z,615.3
2022-11-15T02:48:22.925Z,615.2
2022-11-15T02:49:25.130Z,615.6
2022-11-15T02:50:27.616Z,615.7
2022-11-15T02:51:29.818Z,615.9
2022-11-15T02:52:32.373Z,615.7
2022-11-15T02:53:35.769Z,615.9
2022-11-15T02:54:37.966Z,615.9
2022-11-15T02:55:40.440Z,616.3
2022-11-15T02:56:42.913Z,616.2
2022-11-15T02:57:45.437Z,615.9
2022-11-15T02:58:47.900Z,615.9
2022-11-15T02:59:50.129Z,616.5
2022-11-15T03:00:52.627Z,616.7
2022-11-15T03:01:55.119Z,616.9
2022-11-15T03:02:56.750Z,617
2022-11-15T03:03:59.240Z,617.5
2022-11-15T03:05:01.431Z,617.1
2022-11-15T03:06:03.895Z,617.1
2022-11-15T03:07:06.375Z,616.7
2022-11-15T03:08:08.651Z,617.2
2022-11-15T03:09:10.848Z,616.8
2022-11-15T03:10:12.509Z,617.3
2022-11-15T03:11:14.974Z,617.1
2022-11-15T03:12:17.446Z,617.1
2022-11-15T03:13:19.982Z,616.7
2022-11-15T03:14:22.454Z,616.9
2022-11-15T03:15:24.648Z,616.8
2022-11-15T03:16:27.107Z,617
2022-11-15T03:17:29.580Z,617.3
2022-11-15T03:18:32.064Z,616.9
2022-11-15T03:19:34.540Z,617
2022-11-15T03:20:37.014Z,617.1
2022-11-15T03:21:39.596Z,617
2022-11-15T03:22:42.069Z,617
2022-11-15T03:23:44.617Z,616.9
2022-11-15T03:24:47.092Z,617.3
2022-11-15T03:25:49.571Z,617.4
2022-11-15T03:26:51.484Z,617.3
2022-11-15T03:27:53.664Z,617.5
2022-11-15T03:28:56.205Z,617.5
2022-11-15T03:29:58.669Z,617.9
2022-11-15T03:31:00.883Z,618
2022-11-15T03:32:03.069Z,618.3
2022-11-15T03:33:05.543Z,618.4
2022-11-15T03:34:08.009Z,618.3
2022-11-15T03:35:10.190Z,618.4
2022-11-15T03:36:12.103Z,618.5
2022-11-15T03:37:14.031Z,618.6
2022-11-15T03:38:16.367Z,618.4
2022-11-15T03:40:23.934Z,618.7
2022-11-15T03:41:26.400Z,618.4
2022-11-15T03:42:28.319Z,618.8
2022-11-15T03:43:32.638Z,618.8
2022-11-15T03:44:35.364Z,619
2022-11-15T03:45:37.947Z,619.1
2022-11-15T03:46:40.655Z,619.3
2022-11-15T03:47:43.163Z,619.5
2022-11-15T03:48:45.662Z,619.7
2022-11-15T03:49:47.294Z,619.6
2022-11-15T03:50:49.778Z,619.8
2022-11-15T03:51:51.690Z,619.8
2022-11-15T03:52:53.871Z,620.2
2022-11-15T03:53:55.785Z,620.7
2022-11-15T03:54:58.271Z,620.1
2022-11-15T03:56:00.833Z,620
2022-11-15T03:57:02.846Z,620.4
2022-11-15T03:58:05.321Z,620.3
2022-11-15T03:59:07.804Z,620.2
2022-11-15T04:00:10.318Z,619.9
2022-11-15T04:01:12.987Z,619.9
2022-11-15T04:02:15.206Z,620
2022-11-15T04:03:17.118Z,620.1
2022-11-15T04:04:19.597Z,620.3
2022-11-15T04:05:22.067Z,620.5
2022-11-15T04:06:24.260Z,620.7
2022-11-15T04:07:28.161Z,621
2022-11-15T04:08:30.950Z,620.9
2022-11-15T04:09:33.369Z,620.8
2022-11-15T04:10:35.595Z,621.3
2022-11-15T04:11:37.837Z,620.7
2022-11-15T04:12:40.300Z,621.2
2022-11-15T04:13:42.775Z,621.6
2022-11-15T04:14:45.254Z,621.5
2022-11-15T04:15:47.495Z,622
2022-11-15T04:16:49.964Z,621.6
2022-11-15T04:17:52.436Z,621.5
2022-11-15T04:18:54.642Z,621.8
2022-11-15T04:19:57.116Z,621.7
2022-11-15T04:20:59.580Z,622
2022-11-15T04:22:01.771Z,622
2022-11-15T04:23:03.962Z,621.8
2022-11-15T04:24:06.459Z,622.1
2022-11-15T04:25:08.928Z,621.9
2022-11-15T04:26:11.416Z,621.9
2022-11-15T04:27:13.917Z,621.5
2022-11-15T04:28:16.385Z,621.4
2022-11-15T04:29:18.587Z,621.4
2022-11-15T04:30:21.057Z,621.5
2022-11-15T04:31:23.567Z,621.7
2022-11-15T04:32:26.049Z,621.8
2022-11-15T04:33:28.289Z,621.3
2022-11-15T04:34:30.790Z,621.3
2022-11-15T04:35:33.416Z,621.6
2022-11-15T04:36:35.889Z,621.1
2022-11-15T04:37:37.817Z,621.5
2022-11-15T04:38:40.021Z,621.6
2022-11-15T04:39:42.222Z,621.7
2022-11-15T04:40:44.692Z,621.9
2022-11-15T04:41:46.920Z,621.5
2022-11-15T04:42:49.427Z,621.4
2022-11-15T04:43:51.915Z,621.8
2022-11-15T04:44:54.103Z,621.6
2022-11-15T04:45:56.296Z,621.9
2022-11-15T04:46:58.274Z,622.4
2022-11-15T04:48:00.462Z,622.1
2022-11-15T04:49:02.960Z,622.3
2022-11-15T04:50:05.437Z,622.6
2022-11-15T04:51:08.431Z,622.4
2022-11-15T04:52:10.729Z,622.2
2022-11-15T04:53:13.197Z,622.6
2022-11-15T04:54:15.402Z,623.1
2022-11-15T04:55:17.594Z,622.9
2022-11-15T04:56:19.233Z,623.3
2022-11-15T04:57:21.432Z,622.9
2022-11-15T04:58:23.673Z,623
2022-11-15T04:59:25.304Z,623.2
2022-11-15T05:00:27.207Z,623.3
2022-11-15T05:01:30.225Z,623.5
2022-11-15T05:02:32.980Z,623.8
2022-11-15T05:03:36.436Z,623.9
2022-11-15T05:04:38.916Z,623.8
2022-11-15T05:05:40.573Z,624.1
2022-11-15T05:06:43.057Z,624.3
2022-11-15T05:07:45.249Z,624.8
2022-11-15T05:08:47.724Z,624.8
2022-11-15T05:09:50.214Z,624.8
2022-11-15T05:10:52.685Z,625
2022-11-15T05:11:54.882Z,624.8
2022-11-15T05:12:57.087Z,625
2022-11-15T05:13:59.322Z,624.4
2022-11-15T05:15:01.830Z,624.3
2022-11-15T05:16:04.300Z,624.5
2022-11-15T05:17:07.160Z,624.5
2022-11-15T05:18:09.681Z,624.4
2022-11-15T05:19:11.890Z,624.6
2022-11-15T05:20:13.809Z,624.5
2022-11-15T05:21:16.028Z,624.3
2022-11-15T05:22:18.202Z,624.2
2022-11-15T05:23:19.822Z,624.5
2022-11-15T05:24:22.291Z,624.1
2022-11-15T05:25:24.507Z,624.5
2022-11-15T05:26:26.415Z,624.1
2022-11-15T05:27:28.338Z,624.5
2022-11-15T05:28:31.160Z,624.7
2022-11-15T05:29:33.661Z,624.4
2022-11-15T05:30:35.862Z,624.8
2022-11-15T05:31:38.333Z,625.2
2022-11-15T05:32:40.540Z,624.8
2022-11-15T05:33:42.783Z,625.1
2022-11-15T05:34:45.276Z,625.1
2022-11-15T05:35:47.474Z,625.7
2022-11-15T05:36:49.942Z,625.4
2022-11-15T05:37:52.145Z,625.7
2022-11-15T05:38:54.318Z,625.7
2022-11-15T05:39:56.802Z,626.1
2022-11-15T05:40:58.729Z,626
2022-11-15T05:42:01.194Z,626.3
2022-11-15T05:43:04.165Z,626.5
2022-11-15T05:44:06.469Z,626.4
2022-11-15T05:45:09.007Z,626.7
2022-11-15T05:46:11.480Z,626.8
2022-11-15T05:47:13.700Z,626.5
2022-11-15T05:48:15.890Z,626.2
2022-11-15T05:49:18.462Z,626
2022-11-15T05:50:20.705Z,625.9
2022-11-15T05:51:22.629Z,625.8
2022-11-15T05:52:24.836Z,626.2
2022-11-15T05:53:27.304Z,625.8
2022-11-15T05:54:29.218Z,625.9
2022-11-15T05:55:31.402Z,626
2022-11-15T05:56:33.317Z,626.5
2022-11-15T05:57:35.793Z,626.7
2022-11-15T05:58:37.986Z,626.6
2022-11-15T05:59:39.955Z,626.5
2022-11-15T06:00:42.497Z,626.8
2022-11-15T06:01:45.369Z,626.7
2022-11-15T06:02:47.888Z,626.8
2022-11-15T06:03:50.083Z,626.9
2022-11-15T06:04:52.597Z,627
2022-11-15T06:05:55.069Z,627.5
2022-11-15T06:06:58.000Z,627.3
2022-11-15T06:08:00.474Z,627.8
2022-11-15T06:09:02.890Z,627.7
2022-11-15T06:10:05.093Z,627.7
2022-11-15T06:11:07.562Z,627.3
2022-11-15T06:12:09.495Z,627.6
2022-11-15T06:13:11.678Z,627.3
2022-11-15T06:14:14.157Z,627.4
2022-11-15T06:15:16.369Z,627.6
2022-11-15T06:16:18.898Z,627.6
2022-11-15T06:17:20.819Z,628.1
2022-11-15T06:18:23.303Z,627.8
2022-11-15T06:19:25.499Z,628
2022-11-15T06:20:27.802Z,627.6
2022-11-15T06:21:30.297Z,628
2022-11-15T06:22:32.794Z,628
2022-11-15T06:23:35.588Z,627.7
2022-11-15T06:24:38.057Z,627.7
2022-11-15T06:25:39.960Z,628
2022-11-15T06:26:41.878Z,628.1
2022-11-15T06:27:44.093Z,628.1
2022-11-15T06:28:46.014Z,627.5
2022-11-15T06:29:48.495Z,627.8
2022-11-15T06:31:55.148Z,627.9
2022-11-15T06:32:57.334Z,628.3
2022-11-15T06:33:59.250Z,628
2022-11-15T06:35:01.172Z,628.2
2022-11-15T06:36:03.822Z,628
2022-11-15T06:37:06.014Z,628
2022-11-15T06:38:07.958Z,628.1
2022-11-15T06:39:10.151Z,627.8
2022-11-15T06:40:12.054Z,627.8
2022-11-15T06:41:14.537Z,628.2
2022-11-15T06:42:17.014Z,627.8
2022-11-15T06:43:19.508Z,627.9
2022-11-15T06:44:21.419Z,627.3
2022-11-15T06:45:23.912Z,627.1
2022-11-15T06:46:26.422Z,627.2
2022-11-15T06:47:28.663Z,626.8
2022-11-15T06:48:30.898Z,627
2022-11-15T06:49:33.108Z,626.5
2022-11-15T06:50:35.076Z,626.8
2022-11-15T06:51:37.596Z,626.8
2022-11-15T06:52:40.071Z,627
2022-11-15T06:53:42.279Z,626.7
2022-11-15T06:54:44.770Z,626.9
2022-11-15T06:55:46.400Z,626.9
2022-11-15T06:56:48.884Z,626.5
2022-11-15T06:57:50.549Z,626.8
2022-11-15T06:58:53.032Z,626.9
2022-11-15T06:59:54.941Z,626.5
2022-11-15T07:00:57.709Z,626.6
2022-11-15T07:02:00.256Z,626.3
2022-11-15T07:03:02.576Z,626.2
2022-11-15T07:04:05.048Z,626.2
2022-11-15T07:05:06.956Z,626
2022-11-15T07:06:09.680Z,625.6
2022-11-15T07:07:12.703Z,625.5
2022-11-15T07:08:15.177Z,625.4
2022-11-15T07:09:17.378Z,625.5
2022-11-15T07:10:19.317Z,625.5
2022-11-15T07:11:21.516Z,625
2022-11-15T07:12:23.424Z,625.2
2022-11-15T07:13:25.910Z,625.4
2022-11-15T07:14:28.422Z,625.4
2022-11-15T07:15:30.606Z,624.5
2022-11-15T07:16:32.810Z,624
2022-11-15T07:17:34.516Z,624.1
2022-11-15T07:18:36.763Z,624
2022-11-15T07:19:38.414Z,624
2022-11-15T07:20:40.890Z,624
2022-11-15T07:21:42.541Z,624
2022-11-15T07:22:45.053Z,623.9
2022-11-15T07:23:47.265Z,624.1
2022-11-15T07:24:49.375Z,624.9
2022-11-15T07:25:51.910Z,624.8
2022-11-15T07:26:55.055Z,625.4
2022-11-15T07:27:58.891Z,625.7
2022-11-15T07:29:01.333Z,625.8
2022-11-15T07:30:03.819Z,626
2022-11-15T07:31:05.460Z,626
2022-11-15T07:32:07.668Z,626.3
2022-11-15T07:33:09.934Z,626.2
2022-11-15T07:34:12.303Z,626.7
2022-11-15T07:35:14.817Z,626.2
2022-11-15T07:36:17.016Z,626.6
2022-11-15T07:37:19.487Z,626.3
2022-11-15T07:38:22.140Z,626.7
2022-11-15T07:39:24.343Z,627
2022-11-15T07:40:26.832Z,626.8
2022-11-15T07:41:29.340Z,626.6
2022-11-15T07:42:31.533Z,627
2022-11-15T07:43:35.482Z,627.2
2022-11-15T07:44:37.959Z,627.3
2022-11-15T07:45:40.174Z,627.7
2022-11-15T07:46:42.393Z,627.9
2022-11-15T07:47:44.865Z,628
2022-11-15T07:48:47.663Z,628
2022-11-15T07:49:49.965Z,628
2022-11-15T07:50:52.180Z,628.1
2022-11-15T07:51:54.432Z,628
2022-11-15T07:52:56.643Z,628
2022-11-15T07:53:58.953Z,628.1
2022-11-15T07:55:01.158Z,628.4
2022-11-15T07:56:03.635Z,628.5
2022-11-15T07:58:10.838Z,628.7
2022-11-15T07:59:13.305Z,628.5
2022-11-15T08:00:15.511Z,629.1
2022-11-15T08:01:18.532Z,629.4
2022-11-15T08:03:27.787Z,629.4
2022-11-15T08:04:30.046Z,629.6
2022-11-15T08:05:32.003Z,629.4
2022-11-15T08:06:34.503Z,629.6
2022-11-15T08:07:37.103Z,630.1
2022-11-15T08:08:38.496Z,630.1
2022-11-15T08:09:40.463Z,630.1
2022-11-15T08:10:43.002Z,630.3
2022-11-15T08:11:44.962Z,630.4
2022-11-15T08:12:47.873Z,630.6
2022-11-15T08:13:50.106Z,630.6
2022-11-15T08:14:51.749Z,630.9
2022-11-15T08:16:58.945Z,631.1
2022-11-15T08:18:00.577Z,631.2
2022-11-15T08:19:02.789Z,631.5
2022-11-15T08:20:05.400Z,631.5
2022-11-15T08:21:07.800Z,631.5
2022-11-15T08:22:09.993Z,631.8
2022-11-15T08:23:12.189Z,631.5
2022-11-15T08:24:14.097Z,631.8
2022-11-15T08:25:16.357Z,631.5
2022-11-15T08:26:18.547Z,631.7
2022-11-15T08:27:21.320Z,631.7
2022-11-15T08:28:23.815Z,631.6
2022-11-15T08:29:25.740Z,631.2
2022-11-15T08:30:28.068Z,630.9
2022-11-15T08:31:30.253Z,631
2022-11-15T08:32:32.193Z,631.2
2022-11-15T08:33:36.381Z,631.1
2022-11-15T08:34:38.871Z,630.8
2022-11-15T08:35:41.085Z,631.2
2022-11-15T08:37:48.355Z,631
2022-11-15T08:38:50.286Z,631.4
2022-11-15T08:39:52.224Z,631.2
2022-11-15T08:40:54.734Z,631.1
2022-11-15T08:41:57.235Z,631.5
2022-11-15T08:42:59.447Z,631.3
2022-11-15T08:44:01.641Z,631.3
2022-11-15T08:45:03.861Z,631.7
2022-11-15T08:46:06.079Z,631.5
2022-11-15T08:47:08.553Z,631.3
2022-11-15T08:48:10.776Z,631.6
2022-11-15T08:49:13.264Z,631.5
2022-11-15T08:50:15.479Z,631.5
2022-11-15T08:51:17.424Z,631.8
2022-11-15T08:52:19.085Z,631.7
2022-11-15T08:53:21.631Z,632
2022-11-15T08:54:23.554Z,631.8
2022-11-15T08:55:26.463Z,631.8
2022-11-15T08:56:28.449Z,631.5
2022-11-15T08:57:30.658Z,632
2022-11-15T08:58:35.057Z,632.4
2022-11-15T08:59:37.737Z,632.8
2022-11-15T09:00:40.237Z,632.6
2022-11-15T09:01:43.086Z,632.4
2022-11-15T09:02:45.604Z,632.8
2022-11-15T09:03:48.078Z,632.8
2022-11-15T09:04:50.568Z,633.1
2022-11-15T09:05:52.813Z,633.2
2022-11-15T09:06:55.517Z,633.8
2022-11-15T09:07:57.771Z,633.7
2022-11-15T09:09:00.840Z,633.8
2022-11-15T09:10:03.691Z,633.7
2022-11-15T09:11:05.630Z,633.9
2022-11-15T09:12:08.170Z,633.7
2022-11-15T09:13:10.099Z,634.3
2022-11-15T09:14:12.588Z,634.1
2022-11-15T09:15:15.064Z,633.9
2022-11-15T09:16:17.084Z,634.4
2022-11-15T09:18:24.493Z,634.8
2022-11-15T09:19:26.417Z,635.2
2022-11-15T09:20:28.636Z,635.1
2022-11-15T09:21:31.101Z,634.9
2022-11-15T09:22:33.052Z,635.5
2022-11-15T09:23:34.971Z,635.3
2022-11-15T09:24:37.487Z,635.5
2022-11-15T09:25:39.987Z,635.5
2022-11-15T09:26:42.190Z,635.6
2022-11-15T09:27:44.466Z,635.8
2022-11-15T09:28:46.658Z,636
2022-11-15T09:29:48.873Z,636.3
2022-11-15T09:30:51.371Z,636.5
2022-11-15T09:31:53.853Z,636.5
2022-11-15T09:32:56.062Z,636.8
2022-11-15T09:33:58.247Z,636.7
2022-11-15T09:35:00.749Z,636.7
2022-11-15T09:36:02.382Z,636.9
2022-11-15T09:37:04.618Z,636.9
2022-11-15T09:38:06.619Z,636.7
2022-11-15T09:39:08.860Z,636.9
2022-11-15T09:40:11.420Z,637.2
2022-11-15T09:41:13.911Z,636.7
2022-11-15T09:42:16.151Z,637.2
2022-11-15T09:43:18.998Z,637.2
2022-11-15T09:45:26.191Z,637.4
2022-11-15T09:46:28.675Z,637.1
2022-11-15T09:47:30.605Z,637.5
2022-11-15T09:48:34.967Z,638.2
2022-11-15T09:49:37.373Z,638.3
2022-11-15T09:50:39.610Z,638.1
2022-11-15T09:51:41.824Z,638.4
2022-11-15T09:52:44.461Z,638.9
2022-11-15T09:55:56.754Z,639
2022-11-15T09:56:59.060Z,639.1
2022-11-15T09:58:01.558Z,639.2
2022-11-15T09:59:03.795Z,639.4
2022-11-15T10:01:11.514Z,639.4
2022-11-15T10:02:14.219Z,639.4
2022-11-15T10:03:16.189Z,639.3
2022-11-15T10:04:19.472Z,639.5
2022-11-15T10:05:21.456Z,639.8
2022-11-15T10:06:23.951Z,639.6
2022-11-15T10:07:26.874Z,639.8
2022-11-15T10:08:28.863Z,639.8
2022-11-15T10:09:31.402Z,639.8
2022-11-15T10:10:33.864Z,639.8
2022-11-15T10:12:41.130Z,640.3
2022-11-15T10:13:43.594Z,640.1
2022-11-15T10:15:52.175Z,640.2
2022-11-15T10:16:54.381Z,640.7
2022-11-15T10:17:56.602Z,640.7
2022-11-15T10:18:59.078Z,640.9
2022-11-15T10:21:05.997Z,641.1
2022-11-15T10:22:08.472Z,641.2
2022-11-15T10:23:10.956Z,641
2022-11-15T10:24:13.290Z,641.4
2022-11-15T10:25:15.512Z,641.1
2022-11-15T10:26:17.715Z,641.6
2022-11-15T10:27:19.945Z,642
2022-11-15T10:28:22.208Z,641.6
2022-11-15T10:30:29.393Z,643.1
2022-11-15T10:31:31.630Z,643.1
2022-11-15T10:32:33.919Z,643.2
2022-11-15T10:33:36.472Z,643.4
2022-11-15T10:34:38.398Z,643.4
2022-11-15T10:35:41.158Z,643.4
2022-11-15T10:37:48.351Z,642.9
2022-11-15T10:38:50.858Z,643.4
2022-11-15T10:39:53.347Z,643.5
2022-11-15T10:40:55.556Z,643.5
2022-11-15T10:41:58.038Z,644
2022-11-15T10:43:00.517Z,643.6
2022-11-15T10:44:02.758Z,644.2
2022-11-15T10:45:04.955Z,644.4
2022-11-15T10:47:12.573Z,644.9
2022-11-15T10:48:15.139Z,644.9
2022-11-15T10:49:17.639Z,645.2
2022-11-15T10:50:19.568Z,645.4
2022-11-15T10:51:21.774Z,645.8
2022-11-15T10:52:24.248Z,645.9
2022-11-15T10:53:26.452Z,645.9
2022-11-15T10:54:28.387Z,646.3
2022-11-15T10:55:30.883Z,646.6
2022-11-15T10:56:33.395Z,646.5
2022-11-15T10:57:35.896Z,646.7
2022-11-15T10:58:37.825Z,646.6
2022-11-15T10:59:41.424Z,646.6
2022-11-15T11:00:43.641Z,646.8
2022-11-15T11:01:46.000Z,646.9
2022-11-15T11:02:48.279Z,647.3
2022-11-15T11:03:50.750Z,647
2022-11-15T11:04:53.228Z,647.3
2022-11-15T11:05:54.897Z,647.8
2022-11-15T11:06:57.190Z,647.8
2022-11-15T11:07:59.423Z,648.1
2022-11-15T11:09:01.621Z,647.6
2022-11-15T11:11:11.095Z,648.1
2022-11-15T11:12:13.843Z,648.6
2022-11-15T11:13:15.514Z,648
2022-11-15T11:14:17.710Z,648.5
2022-11-15T11:15:19.961Z,648.7
2022-11-15T11:16:22.443Z,648.8
2022-11-15T11:17:24.406Z,648.6
2022-11-15T11:18:26.642Z,649.4
2022-11-15T11:19:29.194Z,649.2
2022-11-15T11:20:31.099Z,649.3
2022-11-15T11:22:38.025Z,650.4
2022-11-15T11:23:40.497Z,650.6
2022-11-15T11:24:42.974Z,650.5
2022-11-15T11:25:45.180Z,650.6
2022-11-15T11:26:47.394Z,651
2022-11-15T11:27:49.345Z,650.9
2022-11-15T11:28:51.888Z,650.8
2022-11-15T11:29:53.817Z,651.1
2022-11-15T11:30:56.067Z,651.1
2022-11-15T11:31:58.547Z,651.4
2022-11-15T11:33:00.766Z,651.8
2022-11-15T11:34:03.077Z,651.7
2022-11-15T11:35:05.273Z,652.4
2022-11-15T11:36:07.476Z,652
2022-11-15T11:37:09.966Z,652.1
2022-11-15T11:39:18.376Z,652.1
2022-11-15T11:40:20.843Z,652.1
2022-11-15T11:41:23.044Z,652.1
2022-11-15T11:42:25.529Z,652.1
2022-11-15T11:43:27.760Z,651.9
2022-11-15T11:44:29.959Z,652.7
2022-11-15T11:45:32.163Z,651.9
2022-11-15T11:46:34.435Z,652.6
2022-11-15T11:47:36.922Z,652.5
2022-11-15T11:48:39.386Z,652.6
2022-11-15T11:49:42.003Z,652.5
2022-11-15T11:50:44.197Z,652.8
2022-11-15T11:51:46.430Z,652.5
2022-11-15T11:52:48.438Z,653.2
2022-11-15T11:53:50.918Z,652.9
2022-11-15T11:54:53.391Z,653.2
2022-11-15T11:55:55.871Z,653.2
2022-11-15T11:56:58.100Z,653.4
2022-11-15T11:58:00.587Z,653.5
2022-11-15T11:59:02.812Z,653.5
2022-11-15T12:00:04.750Z,653.4
2022-11-15T12:02:12.743Z,654.1
2022-11-15T12:03:15.778Z,654.7
2022-11-15T12:04:17.699Z,655.1
2022-11-15T12:05:20.227Z,654.8
2022-11-15T12:06:21.881Z,654.9
2022-11-15T12:07:24.402Z,655.1
2022-11-15T12:08:26.644Z,655.1
2022-11-15T12:09:28.850Z,655.1
2022-11-15T12:10:31.322Z,655.1
2022-11-15T12:11:33.876Z,654.9
2022-11-15T12:12:36.085Z,654.6
2022-11-15T12:13:38.002Z,655
2022-11-15T12:14:40.524Z,654.7
2022-11-15T12:15:42.724Z,655
2022-11-15T12:16:45.223Z,654.8
2022-11-15T12:17:47.760Z,654.8
2022-11-15T12:18:49.972Z,654.9
2022-11-15T12:19:52.173Z,654.9
2022-11-15T12:20:54.436Z,654.9
2022-11-15T12:21:56.653Z,655.4
2022-11-15T12:22:58.579Z,655
2022-11-15T12:24:00.779Z,655
2022-11-15T12:25:03.207Z,655.2
2022-11-15T12:26:05.444Z,655.7
2022-11-15T12:27:07.932Z,655.4
2022-11-15T12:28:10.700Z,655.9
2022-11-15T12:29:13.213Z,655.5
2022-11-15T12:30:15.720Z,655.6
2022-11-15T12:31:17.919Z,655.7
2022-11-15T12:32:19.835Z,655.6
2022-11-15T12:33:22.363Z,655.7
2022-11-15T12:34:24.907Z,656
2022-11-15T12:35:27.115Z,655.9
2022-11-15T12:36:29.405Z,655.8
2022-11-15T12:37:31.886Z,656.2
2022-11-15T12:38:35.826Z,656.2
2022-11-15T12:39:38.342Z,656.5
2022-11-15T12:40:40.562Z,656.6
2022-11-15T12:41:42.758Z,656.9
2022-11-15T12:42:44.932Z,656.6
2022-11-15T12:43:47.413Z,657.1
2022-11-15T12:44:49.334Z,656.6
2022-11-15T12:45:51.577Z,656.9
2022-11-15T12:46:54.095Z,657.1
2022-11-15T12:47:56.307Z,657.3
2022-11-15T12:48:58.902Z,657.2
2022-11-15T12:50:01.427Z,657.4
2022-11-15T12:51:03.656Z,657.4
2022-11-15T12:52:05.627Z,657.2
2022-11-15T12:53:07.947Z,657.4
2022-11-15T12:54:09.595Z,657.3
2022-11-15T12:55:11.849Z,657.7
2022-11-15T12:56:14.347Z,657.6
2022-11-15T12:57:16.544Z,657.8
2022-11-15T12:58:19.016Z,658.3
2022-11-15T12:59:21.496Z,658.1
2022-11-15T13:01:29.090Z,658.7
2022-11-15T13:02:31.286Z,658.8
2022-11-15T13:03:33.222Z,659
2022-11-15T13:04:35.754Z,659
2022-11-15T13:05:38.237Z,658.8
2022-11-15T13:06:40.171Z,659.2
2022-11-15T13:07:42.486Z,659.1
2022-11-15T13:08:44.142Z,659
2022-11-15T13:09:46.666Z,659.2
2022-11-15T13:10:49.140Z,658.9
2022-11-15T13:11:51.103Z,659
2022-11-15T13:12:53.585Z,658.6
2022-11-15T13:13:55.801Z,658.5
2022-11-15T13:14:58.129Z,658.6
2022-11-15T13:16:00.642Z,658.8
2022-11-15T13:17:02.855Z,658.4
2022-11-15T13:18:04.791Z,658.3
2022-11-15T13:19:07.015Z,658.7
2022-11-15T13:20:09.602Z,659.1
2022-11-15T13:21:12.124Z,658.7
2022-11-15T13:22:14.318Z,659
2022-11-15T13:23:16.557Z,658.8
2022-11-15T13:24:18.784Z,658.8
2022-11-15T13:25:21.083Z,658.7
2022-11-15T13:26:23.570Z,659
2022-11-15T13:27:25.756Z,659.1
2022-11-15T13:28:28.250Z,658.8
2022-11-15T13:29:30.446Z,658.8
2022-11-15T13:30:32.645Z,659.1
2022-11-15T13:31:35.113Z,659.3
2022-11-15T13:32:37.610Z,658.6
2022-11-15T13:33:39.516Z,658.8
2022-11-15T13:35:47.036Z,658.8
2022-11-15T13:36:49.221Z,658.9
2022-11-15T13:37:51.437Z,658.7
2022-11-15T13:38:53.969Z,658.9
2022-11-15T13:39:56.442Z,659.1
2022-11-15T13:40:58.933Z,659.4
2022-11-15T13:42:01.397Z,659.1
2022-11-15T13:43:03.875Z,659.5
2022-11-15T13:44:06.133Z,659.2
2022-11-15T13:45:08.325Z,659.6
2022-11-15T13:46:10.816Z,659.7
2022-11-15T13:47:13.023Z,659.4
2022-11-15T13:48:15.534Z,659.4
2022-11-15T13:49:17.471Z,659.3
2022-11-15T13:50:19.681Z,659.1
2022-11-15T13:51:22.237Z,659.2
2022-11-15T13:52:24.717Z,658.9
2022-11-15T13:53:27.190Z,658.9
2022-11-15T13:54:29.716Z,659.1